Big Trout Lake Airport
CYTL : now visible

Airfield :











YOU CAN JOIN US ON...

 
LOGIN :

Register | Disclaimer

   EN    FR    IT 

 









Legend :    VFR   Marginal VFR   IFR   Intensive IFR   Very Intensive IFR
Visi :
Ceiling :
>= 8 km
>= 3000ft
5 to 8 km
1000 to 3000 ft
1500m to 5 km
500 to 1000 ft
800 to 1500m
200 to 500 ft
< 800m
< 200 ft
Symbols :   Thunderstorms  Fog  Heavy snow  Heavy precipitations  Wind > 20 kt






- Airport Elevation : 729 ft
- IATA code : YTL


CYTL - Big Trout Lake

CURRENT METAR :
  • 220000Z AUTO 33004KT 280V020 9SM SCT150 M04/M15 A2995 RMK SLP165

EXPIRED METARs :
  • 212300Z AUTO 32007KT 9SM FEW120 M03/M16 A2996 RMK SLP170
  • 212200Z AUTO 31008KT 260V340 9SM CLR M04/M16 A2997 RMK SLP173
  • 212100Z AUTO 29009G17KT 260V330 9SM CLR M05/M16 A2999 RMK SLP179
  • 212000Z AUTO 31011G17KT 260V340 9SM CLR M06/M16 A3001 RMK SLP187
  • 211900Z AUTO 30010G17KT 9SM CLR M08/M18 A3003 RMK SLP193

TAF TAF CYTL
Valid from the 21 at 20:00 until the 22 at 08:00 UTC


211941Z 2120/2208 30010G20KT P6SM SCT160
FM220000 VRB03KT P6SM BKN120
BECMG 2204/2206 13005KT RMK FCST BASED ON AUTO OBS. NXT FCST BY 220200Z
CZWG FIR / North America



MET'MAP, your aeronautical weather chart ! - Copyright ORBIFLY December 2007 - Disclaimer

ORBIFLY MET'MAP TEAM :

Programming & Development : Alexandra Zaïnal
Original concept : Baudouin d'Aumeries
Technical & hardware support : Manuel Goepfert
Assistance : Marc-Olivier Méhu




SOURCES & CREDITS :

   NOAA       Earth
Advisory